Latest Weather Observations for Hay Point

IDQ60801

Issued at 3:32 am EST Thursday 2 April 2015 (issued every 30 minutes, with the page automatically refreshed every 10 minutes)

About weather observations | Map of weather stations | Latest weather observations for QLD | Other Formats
Station Details ID: 033317 Name: HAY POINT Lat: -21.29 Lon: 149.30 Height: 7.0 m
Data from the previous 72 hours. | See also: Recent months for locations in Queensland
Date/Time
EST
Temp
°C
App
Temp
°C
Dew
Point
Rel
Hum
%
Delta-T
°C
Wind Press
QNH
hPa
Press
MSL
hPa
Rain
since 9 am
mm
Dir
 
Spd
km/h
Gust
km/h
Spd
kts
Gust
kts
02/03:30am - - - - - SW 17 19 9 10 - - -
02/03:00am - - - - - S 17 26 9 14 - - -
02/02:30am - - - - - SSW 17 26 9 14 - - -
02/02:00am - - - - - SSW 28 33 15 18 - - -
02/01:30am - - - - - SSW 28 33 15 18 - - -
02/01:00am - - - - - SSW 26 32 14 17 - - -
02/12:30am - - - - - SW 19 26 10 14 - - -
02/12:00am - - - - - SSW 20 28 11 15 - - -
 
Date/Time
EST
Temp
°C
App
Temp
°C
Dew
Point
Rel
Hum
%
Delta-T
°C
Wind Press
QNH
hPa
Press
MSL
hPa
Rain
since 9 am
mm
Dir
 
Spd
km/h
Gust
km/h
Spd
kts
Gust
kts
01/11:30pm - - - - - SW 19 24 10 13 - - -
01/11:00pm - - - - - SW 19 26 10 14 - - -
01/10:30pm - - - - - SSW 17 24 9 13 - - -
01/10:00pm - - - - - SE 26 32 14 17 - - -
01/09:30pm - - - - - S 15 22 8 12 - - -
01/09:00pm - - - - - SSW 24 30 13 16 - - -
01/08:30pm - - - - - S 26 32 14 17 - - -
01/08:00pm - - - - - SSE 33 41 18 22 - - -
01/07:30pm - - - - - SSE 32 43 17 23 - - -
01/07:00pm - - - - - SSE 39 48 21 26 - - -
01/06:30pm - - - - - SSE 43 50 23 27 - - -
01/06:00pm - - - - - SSE 48 56 26 30 - - -
01/05:30pm - - - - - SSE 35 43 19 23 - - -
01/05:00pm - - - - - SSE 28 35 15 19 - - -
01/04:30pm - - - - - ESE 30 37 16 20 - - -
01/04:00pm - - - - - ESE 33 39 18 21 - - -
01/03:30pm - - - - - SSE 30 35 16 19 - - -
01/03:00pm - - - - - SSE 32 39 17 21 - - -
01/02:30pm - - - - - SSE 26 35 14 19 - - -
01/02:00pm - - - - - SSE 24 33 13 18 - - -
01/01:30pm - - - - - SSE 32 39 17 21 - - -
01/01:00pm - - - - - SSE 32 37 17 20 - - -
01/12:30pm - - - - - SSE 30 35 16 19 - - -
01/12:00pm - - - - - SSE 28 35 15 19 - - -
01/11:30am - - - - - SSE 33 41 18 22 - - -
01/11:00am - - - - - SSE 35 39 19 21 - - -
01/10:30am - - - - - S 24 32 13 17 - - -
01/10:00am - - - - - S 24 30 13 16 - - -
01/09:30am - - - - - SSW 26 32 14 17 - - -
01/09:00am - - - - - S 24 30 13 16 - - -
01/08:30am - - - - - SSW 22 30 12 16 - - -
01/08:00am - - - - - SW 20 26 11 14 - - -
01/07:30am - - - - - S 30 41 16 22 - - -
01/07:00am - - - - - SSE 30 37 16 20 - - -
01/06:30am - - - - - SE 32 39 17 21 - - -
01/06:28am - - - - - SE 32 41 17 22 - - -
01/06:00am - - - - - ESE 44 54 24 29 - - -
01/05:48am - - - - - SSE 28 50 15 27 - - -
01/05:30am - - - - - S 33 46 18 25 - - -
01/05:00am - - - - - S 37 44 20 24 - - -
01/04:40am - - - - - SSW 26 50 14 27 - - -
01/04:30am - - - - - SSW 22 37 12 20 - - -
01/04:00am - - - - - ESE 33 39 18 21 - - -
01/03:30am - - - - - ESE 30 37 16 20 - - -
01/03:00am - - - - - ESE 30 39 16 21 - - -
01/02:30am - - - - - SE 32 41 17 22 - - -
01/02:00am - - - - - SE 30 37 16 20 - - -
01/01:30am - - - - - SE 37 50 20 27 - - -
01/01:00am - - - - - SE 37 50 20 27 - - -
01/12:30am - - - - - SE 33 48 18 26 - - -
01/12:00am - - - - - SE 35 48 19 26 - - -
 
Date/Time
EST
Temp
°C
App
Temp
°C
Dew
Point
Rel
Hum
%
Delta-T
°C
Wind Press
QNH
hPa
Press
MSL
hPa
Rain
since 9 am
mm
Dir
 
Spd
km/h
Gust
km/h
Spd
kts
Gust
kts
31/11:30pm - - - - - SE 37 44 20 24 - - -
31/11:00pm - - - - - SE 39 52 21 28 - - -
31/10:30pm - - - - - SSE 37 48 20 26 - - -
31/10:00pm - - - - - SSE 41 52 22 28 - - -
31/09:30pm - - - - - S 32 48 17 26 - - -
31/09:28pm - - - - - S 32 48 17 26 - - -
31/09:00pm - - - - - SSW 28 39 15 21 - - -
31/08:48pm - - - - - SSW 48 72 26 39 - - -
31/08:46pm - - - - - SSW 48 72 26 39 - - -
31/08:31pm - - - - - SSW 39 57 21 31 - - -
31/08:30pm - - - - - SSW 39 56 21 30 - - -
31/08:09pm - - - - - SE 39 48 21 26 - - -
31/08:00pm - - - - - ESE 44 50 24 27 - - -
31/07:30pm - - - - - ESE 41 50 22 27 - - -
31/07:00pm - - - - - ESE 35 41 19 22 - - -
31/06:30pm - - - - - ESE 32 37 17 20 - - -
31/06:00pm - - - - - SE 22 30 12 16 - - -
31/05:30pm - - - - - SSE 24 33 13 18 - - -
31/05:00pm - - - - - SSE 32 37 17 20 - - -
31/04:30pm - - - - - SSE 35 39 19 21 - - -
31/04:00pm - - - - - SSE 37 48 20 26 - - -
31/03:30pm - - - - - SSE 33 37 18 20 - - -
31/03:00pm - - - - - SE 28 37 15 20 - - -
31/02:30pm - - - - - SE 30 39 16 21 - - -
31/02:00pm - - - - - S 35 43 19 23 - - -
31/01:30pm - - - - - SSE 35 41 19 22 - - -
31/01:00pm - - - - - S 28 35 15 19 - - -
31/12:30pm - - - - - S 28 37 15 20 - - -
31/12:00pm - - - - - S 26 33 14 18 - - -
31/11:30am - - - - - S 24 32 13 17 - - -
31/11:00am - - - - - S 28 35 15 19 - - -
31/10:30am - - - - - SSW 28 37 15 20 - - -
31/10:00am - - - - - SSW 28 32 15 17 - - -
31/09:30am - - - - - S 20 30 11 16 - - -
31/09:00am - - - - - SSW 24 32 13 17 - - -
31/08:30am - - - - - SSW 20 28 11 15 - - -
31/08:00am - - - - - SE 26 33 14 18 - - -
31/07:30am - - - - - S 24 30 13 16 - - -
31/07:00am - - - - - SSW 30 35 16 19 - - -
31/06:57am - - - - - SSW 30 39 16 21 - - -
31/06:30am - - - - - SSE 43 50 23 27 - - -
31/06:00am - - - - - SSE 43 59 23 32 - - -
31/05:58am - - - - - SSE 41 59 22 32 - - -
31/05:30am - - - - - SSE 43 50 23 27 - - -
31/05:00am - - - - - SSE 54 63 29 34 - - -
31/04:34am - - - - - S 28 54 15 29 - - -
31/04:30am - - - - - S 24 35 13 19 - - -
31/04:00am - - - - - S 32 39 17 21 - - -
31/03:30am - - - - - SE 24 33 13 18 - - -
31/03:00am - - - - - ESE 24 30 13 16 - - -
31/02:30am - - - - - ENE 28 33 15 18 - - -
31/02:00am - - - - - ENE 32 43 17 23 - - -
31/01:30am - - - - - ESE 32 37 17 20 - - -
31/01:00am - - - - - E 48 57 26 31 - - -
31/12:50am - - - - - ESE 39 57 21 31 - - -
31/12:44am - - - - - E 37 54 20 29 - - -
31/12:42am - - - - - E 35 54 19 29 - - -
31/12:30am - - - - - ENE 32 35 17 19 - - -
31/12:00am - - - - - NE 33 41 18 22 - - -
 
Date/Time
EST
Temp
°C
App
Temp
°C
Dew
Point
Rel
Hum
%
Delta-T
°C
Wind Press
QNH
hPa
Press
MSL
hPa
Rain
since 9 am
mm
Dir
 
Spd
km/h
Gust
km/h
Spd
kts
Gust
kts
30/11:31pm - - - - - E 33 56 18 30 - - -
30/11:30pm - - - - - E 32 56 17 30 - - -
30/11:28pm - - - - - E 24 48 13 26 - - -
30/11:00pm - - - - - ENE 24 28 13 15 - - -
30/10:30pm - - - - - ESE 33 41 18 22 - - -
30/10:00pm - - - - - ESE 35 41 19 22 - - -
30/09:30pm - - - - - ESE 35 41 19 22 - - -
30/09:00pm - - - - - ESE 32 37 17 20 - - -
30/08:30pm - - - - - E 33 43 18 23 - - -
30/08:00pm - - - - - ESE 35 41 19 22 - - -
30/07:30pm - - - - - E 37 48 20 26 - - -
30/07:12pm - - - - - ESE 33 52 18 28 - - -
30/07:10pm - - - - - SE 30 52 16 28 - - -
30/07:00pm - - - - - ESE 33 41 18 22 - - -
30/06:30pm - - - - - SE 19 26 10 14 - - -
30/06:00pm - - - - - ESE 28 33 15 18 - - -
30/05:30pm - - - - - ESE 17 20 9 11 - - -
30/05:00pm - - - - - ENE 26 39 14 21 - - -
30/04:48pm - - - - - ESE 33 44 18 24 - - -
30/04:30pm - - - - - SE 26 33 14 18 - - -
30/04:00pm - - - - - SSE 32 37 17 20 - - -
30/03:30pm - - - - - SSE 20 28 11 15 - - -
30/03:00pm - - - - - E 22 28 12 15 - - -
30/02:30pm - - - - - ENE 19 26 10 14 - - -
30/02:00pm - - - - - ENE 44 54 24 29 - - -
30/01:49pm - - - - - E 28 48 15 26 - - -
30/01:30pm - - - - - E 19 24 10 13 - - -
30/01:00pm - - - - - ENE 22 28 12 15 - - -
30/12:30pm - - - - - E 26 30 14 16 - - -
30/12:00pm - - - - - ENE 26 32 14 17 - - -
30/11:30am - - - - - ENE 28 32 15 17 - - -
30/11:00am - - - - - E 26 32 14 17 - - -
30/10:30am - - - - - E 20 26 11 14 - - -
30/10:00am - - - - - E 20 26 11 14 - - -
30/09:30am - - - - - E 28 32 15 17 - - -
30/09:00am - - - - - E 22 26 12 14 - - -
30/08:30am - - - - - ESE 22 30 12 16 - - -
30/08:00am - - - - - ESE 19 24 10 13 - - -
30/07:55am - - - - - ESE 20 26 11 14 - - -
30/07:30am - - - - - E 46 63 25 34 - - -
30/07:23am - - - - - ESE 33 63 18 34 - - -
30/07:21am - - - - - ESE 30 57 16 31 - - -
30/07:17am - - - - - SE 30 44 16 24 - - -
30/07:00am - - - - - SE 19 26 10 14 - - -
30/06:30am - - - - - SE 28 33 15 18 - - -
30/06:09am - - - - - ESE 32 50 17 27 - - -
30/06:00am - - - - - SSE 32 39 17 21 - - -
30/05:30am - - - - - SSW 17 33 9 18 - - -
30/05:00am - - - - - SW 20 26 11 14 - - -
30/04:30am - - - - - SSW 24 33 13 18 - - -
30/04:00am - - - - - SSW 22 30 12 16 - - -

Other Formats:

Comma delimited format used in spreadsheet applications
http://www.bom.gov.au/fwo/IDQ60801/IDQ60801.99367.axf

JavaScript Object Notation format (JSON) in row-major order
http://www.bom.gov.au/fwo/IDQ60801/IDQ60801.99367.json